Ariane — D5FO5 — position and weather

sailwx.info

Track history (hours):
 
Tides and Currents Weather Stations Pressure Air Temp Water Temp Dewpoint Dewpoint Depression Visibility Wind Speed Wind Dir Waves Ship Positions

Ariane

Last reported at 2018-Jul-21 14:06 UTC. Time now 2018-Jul-21 15:30 UTC.
Position N 27°52' W 091°41'.

Length 227 m; draft 8.3 m.

Type: Ship (hazmat cat B). MMSI: 626092552.

Date/timePositionNaut miles runAvg speedWind from/ knotsBaromVisibWave heightAir tempDewpointWater temp
2018-Jul-21 14:06N 27°52' W 091°41'112.2
2018-Jul-21 14:00N 27°52' W 091°40'1912.3
2018-Jul-21 12:27N 27°52' W 091°18'612.3
2018-Jul-21 12:00N 27°52' W 091°12'712.4
2018-Jul-21 11:27N 27°51' W 091°04'2712.9
2018-Jul-21 09:24N 27°52' W 090°34'3513.3
2018-Jul-21 06:45N 27°53' W 089°54'413.6
2018-Jul-21 06:28N 27°53' W 089°50'713.7
2018-Jul-21 05:58N 27°53' W 089°42'813.5
2018-Jul-21 05:20N 27°53' W 089°33'513.5
2018-Jul-21 05:00N 27°53' W 089°27'713.4
2018-Jul-21 04:30N 27°53' W 089°20'713.2
2018-Jul-21 03:57N 27°55' W 089°12'614.2
2018-Jul-21 03:30N 27°59' W 089°07'131 9.0
2018-Jul-20 12:57N 30°07' W 088°33'  
Track history (hours):
 
Tides and Currents Weather Stations Pressure Air Temp Water Temp Dewpoint Dewpoint Depression Visibility Wind Speed Wind Dir Waves Ship Positions

Ariane

Last reported at 2018-Jul-21 14:06 UTC. Time now 2018-Jul-21 15:30 UTC.
Position N 27°52' W 091°41'.

Length 227 m; draft 8.3 m.

Type: Ship (hazmat cat B). MMSI: 626092552.

Date/timePositionNaut miles runAvg speedWind from/ knotsBaromVisibWave heightAir tempDewpointWater temp
2018-Jul-21 14:06N 27°52' W 091°41'112.2
2018-Jul-21 14:00N 27°52' W 091°40'1912.3
2018-Jul-21 12:27N 27°52' W 091°18'612.3
2018-Jul-21 12:00N 27°52' W 091°12'712.4
2018-Jul-21 11:27N 27°51' W 091°04'2712.9
2018-Jul-21 09:24N 27°52' W 090°34'3513.3
2018-Jul-21 06:45N 27°53' W 089°54'413.6
2018-Jul-21 06:28N 27°53' W 089°50'713.7
2018-Jul-21 05:58N 27°53' W 089°42'813.5
2018-Jul-21 05:20N 27°53' W 089°33'513.5
2018-Jul-21 05:00N 27°53' W 089°27'713.4
2018-Jul-21 04:30N 27°53' W 089°20'713.2
2018-Jul-21 03:57N 27°55' W 089°12'614.2
2018-Jul-21 03:30N 27°59' W 089°07'131 9.0
2018-Jul-20 12:57N 30°07' W 088°33'  

Dump ship's entire track history